createdAt,value
2019-04-09T00:00:04.626Z,971.53
2019-04-09T00:01:04.742Z,971.51
2019-04-09T00:02:05.293Z,971.54
2019-04-09T00:03:05.237Z,971.54
2019-04-09T00:04:05.376Z,971.37
2019-04-09T00:05:04.498Z,971.46
2019-04-09T00:06:05.283Z,971.38
2019-04-09T00:07:06.059Z,971.49
2019-04-09T00:08:08.565Z,971.49
2019-04-09T00:09:05.197Z,971.55
2019-04-09T00:10:06.308Z,971.63
2019-04-09T00:11:06.135Z,971.44
2019-04-09T00:12:05.111Z,971.58
2019-04-09T00:13:05.402Z,971.52
2019-04-09T00:14:05.453Z,971.41
2019-04-09T00:15:05.389Z,971.61
2019-04-09T00:16:05.166Z,971.58
2019-04-09T00:17:05.545Z,971.50
2019-04-09T00:18:05.931Z,971.75
2019-04-09T00:19:05.956Z,971.56
2019-04-09T00:20:06.071Z,971.75
2019-04-09T00:21:06.461Z,971.58
2019-04-09T00:22:05.113Z,971.58
2019-04-09T00:23:06.280Z,971.44
2019-04-09T00:24:05.496Z,971.53
2019-04-09T00:25:06.491Z,971.39
2019-04-09T00:26:05.244Z,971.65
2019-04-09T00:27:04.872Z,971.62
2019-04-09T00:28:05.956Z,971.45
2019-04-09T00:29:05.715Z,971.57
2019-04-09T00:30:04.926Z,971.54
2019-04-09T00:31:06.347Z,971.54
2019-04-09T00:32:05.141Z,971.54
2019-04-09T00:33:06.000Z,971.68
2019-04-09T00:34:05.102Z,971.57
2019-04-09T00:35:05.322Z,971.54
2019-04-09T00:36:05.379Z,971.54
2019-04-09T00:37:05.086Z,971.60
2019-04-09T00:38:05.212Z,971.60
2019-04-09T00:39:05.341Z,971.55
2019-04-09T00:40:06.101Z,971.63
2019-04-09T00:41:05.141Z,971.55
2019-04-09T00:42:05.186Z,971.61
2019-04-09T00:43:10.581Z,971.69
2019-04-09T00:44:06.155Z,971.52
2019-04-09T00:45:06.316Z,971.50
2019-04-09T00:46:05.250Z,971.55
2019-04-09T00:47:06.261Z,971.56
2019-04-09T00:48:05.493Z,971.50
2019-04-09T00:49:05.380Z,971.47
2019-04-09T00:50:06.305Z,971.61
2019-04-09T00:51:06.101Z,971.64
2019-04-09T00:52:06.503Z,971.56
2019-04-09T00:53:05.378Z,971.59
2019-04-09T00:54:05.412Z,971.56
2019-04-09T00:55:05.073Z,971.67
2019-04-09T00:56:06.271Z,971.62
2019-04-09T00:57:10.668Z,971.70
2019-04-09T00:58:05.317Z,971.56
2019-04-09T00:59:05.830Z,971.53
2019-04-09T01:00:05.695Z,971.56
2019-04-09T01:01:06.070Z,971.62
2019-04-09T01:02:04.781Z,971.65
2019-04-09T01:03:05.972Z,971.70
2019-04-09T01:04:09.639Z,971.59
2019-04-09T01:05:05.089Z,971.56
2019-04-09T01:06:05.567Z,971.62
2019-04-09T01:07:05.951Z,971.67
2019-04-09T01:08:05.250Z,971.48
2019-04-09T01:09:05.211Z,971.51
2019-04-09T01:10:06.257Z,971.62
2019-04-09T01:11:05.736Z,971.56
2019-04-09T01:12:05.297Z,971.53
2019-04-09T01:13:04.907Z,971.56
2019-04-09T01:14:05.273Z,971.53
2019-04-09T01:15:05.010Z,971.53
2019-04-09T01:16:05.657Z,971.51
2019-04-09T01:17:05.457Z,971.59
2019-04-09T01:18:05.251Z,971.45
2019-04-09T01:19:17.013Z,971.62
2019-04-09T01:20:05.322Z,971.56
2019-04-09T01:21:05.428Z,971.67
2019-04-09T01:22:05.515Z,971.64
2019-04-09T01:23:04.763Z,971.67
2019-04-09T01:24:05.666Z,971.61
2019-04-09T01:25:06.517Z,971.78
2019-04-09T01:26:06.391Z,971.61
2019-04-09T01:27:18.119Z,971.69
2019-04-09T01:28:06.565Z,971.69
2019-04-09T01:29:05.799Z,971.72
2019-04-09T01:30:05.724Z,971.63
2019-04-09T01:31:05.547Z,971.61
2019-04-09T01:32:04.832Z,971.83
2019-04-09T01:33:06.439Z,971.80
2019-04-09T01:34:05.822Z,971.87
2019-04-09T01:35:05.493Z,971.74
2019-04-09T01:36:05.772Z,971.84
2019-04-09T01:37:06.345Z,971.77
2019-04-09T01:38:06.517Z,971.80
2019-04-09T01:39:05.226Z,971.65
2019-04-09T01:40:05.587Z,971.77
2019-04-09T01:41:05.295Z,971.60
2019-04-09T01:42:06.503Z,971.60
2019-04-09T01:43:10.603Z,971.79
2019-04-09T01:44:05.746Z,971.74
2019-04-09T01:45:05.499Z,971.82
2019-04-09T01:46:06.322Z,971.71
2019-04-09T01:47:06.174Z,971.73
2019-04-09T01:48:05.715Z,971.84
2019-04-09T01:49:05.624Z,971.76
2019-04-09T01:50:04.805Z,971.76
2019-04-09T01:51:04.910Z,971.68
2019-04-09T01:52:05.236Z,971.79
2019-04-09T01:53:05.583Z,971.82
2019-04-09T01:54:05.655Z,971.59
2019-04-09T01:55:05.283Z,971.68
2019-04-09T01:56:04.751Z,971.65
2019-04-09T01:57:05.925Z,971.67
2019-04-09T01:58:04.675Z,971.70
2019-04-09T01:59:06.526Z,971.70
2019-04-09T02:00:05.550Z,971.79
2019-04-09T02:01:07.139Z,971.67
2019-04-09T02:02:05.165Z,971.70
2019-04-09T02:03:05.210Z,971.65
2019-04-09T02:04:06.275Z,971.70
2019-04-09T02:05:05.186Z,971.73
2019-04-09T02:06:05.197Z,971.67
2019-04-09T02:07:05.879Z,971.79
2019-04-09T02:08:06.147Z,971.73
2019-04-09T02:09:05.335Z,971.65
2019-04-09T02:10:05.073Z,971.70
2019-04-09T02:11:09.262Z,971.68
2019-04-09T02:12:06.471Z,971.83
2019-04-09T02:13:05.302Z,971.83
2019-04-09T02:14:05.360Z,971.92
2019-04-09T02:15:05.278Z,971.89
2019-04-09T02:16:05.462Z,971.79
2019-04-09T02:17:05.692Z,971.82
2019-04-09T02:18:05.580Z,971.79
2019-04-09T02:19:05.322Z,971.84
2019-04-09T02:20:06.571Z,971.84
2019-04-09T02:21:07.023Z,971.84
2019-04-09T02:22:04.678Z,971.84
2019-04-09T02:23:04.934Z,971.84
2019-04-09T02:24:05.550Z,971.68
2019-04-09T02:25:06.123Z,971.68
2019-04-09T02:26:06.040Z,971.90
2019-04-09T02:27:05.096Z,971.84
2019-04-09T02:28:05.310Z,971.82
2019-04-09T02:29:06.540Z,971.82
2019-04-09T02:30:08.217Z,971.84
2019-04-09T02:31:07.810Z,971.80
2019-04-09T02:32:04.854Z,971.84
2019-04-09T02:33:07.149Z,971.77
2019-04-09T02:34:05.138Z,971.74
2019-04-09T02:35:05.333Z,971.90
2019-04-09T02:36:07.857Z,971.69
2019-04-09T02:37:04.909Z,971.83
2019-04-09T02:38:07.873Z,971.88
2019-04-09T02:39:05.359Z,971.91
2019-04-09T02:40:05.260Z,971.85
2019-04-09T02:41:05.332Z,971.91
2019-04-09T02:42:04.877Z,971.80
2019-04-09T02:43:10.658Z,971.88
2019-04-09T02:44:06.192Z,971.80
2019-04-09T02:45:06.260Z,971.94
2019-04-09T02:46:06.467Z,971.85
2019-04-09T02:47:05.339Z,972.02
2019-04-09T02:48:05.475Z,971.97
2019-04-09T02:49:04.977Z,972.00
2019-04-09T02:50:06.526Z,971.94
2019-04-09T02:51:05.573Z,972.03
2019-04-09T02:52:05.408Z,972.00
2019-04-09T02:53:05.132Z,971.94
2019-04-09T02:54:05.183Z,971.94
2019-04-09T02:55:05.177Z,972.09
2019-04-09T02:56:05.661Z,972.03
2019-04-09T02:57:05.888Z,972.00
2019-04-09T02:58:06.447Z,972.17
2019-04-09T02:59:04.816Z,972.00
2019-04-09T03:00:05.787Z,972.12
2019-04-09T03:01:04.903Z,972.03
2019-04-09T03:02:05.907Z,972.00
2019-04-09T03:03:04.571Z,972.06
2019-04-09T03:04:04.910Z,972.01
2019-04-09T03:05:06.227Z,972.21
2019-04-09T03:06:05.289Z,972.01
2019-04-09T03:07:05.633Z,972.04
2019-04-09T03:08:06.367Z,972.10
2019-04-09T03:09:06.501Z,972.07
2019-04-09T03:10:05.645Z,972.19
2019-04-09T03:11:06.555Z,972.13
2019-04-09T03:12:05.324Z,972.16
2019-04-09T03:13:04.594Z,971.99
2019-04-09T03:14:05.840Z,972.19
2019-04-09T03:15:05.497Z,972.17
2019-04-09T03:16:05.201Z,972.25
2019-04-09T03:17:05.224Z,972.11
2019-04-09T03:18:05.085Z,972.11
2019-04-09T03:19:04.927Z,972.09
2019-04-09T03:20:05.067Z,972.18
2019-04-09T03:21:07.457Z,972.09
2019-04-09T03:22:05.284Z,972.09
2019-04-09T03:23:05.031Z,972.18
2019-04-09T03:24:05.685Z,972.07
2019-04-09T03:25:05.741Z,971.96
2019-04-09T03:26:06.009Z,971.99
2019-04-09T03:27:04.860Z,972.16
2019-04-09T03:28:11.137Z,972.13
2019-04-09T03:29:05.792Z,972.08
2019-04-09T03:30:07.924Z,972.11
2019-04-09T03:31:06.784Z,971.99
2019-04-09T03:32:06.697Z,972.25
2019-04-09T03:33:08.935Z,972.19
2019-04-09T03:34:04.907Z,972.11
2019-04-09T03:35:05.422Z,972.08
2019-04-09T03:36:05.428Z,972.25
2019-04-09T03:37:04.595Z,972.20
2019-04-09T03:38:05.954Z,972.17
2019-04-09T03:39:05.404Z,972.23
2019-04-09T03:40:05.349Z,972.12
2019-04-09T03:41:06.343Z,972.20
2019-04-09T03:42:05.941Z,972.26
2019-04-09T03:43:11.173Z,972.15
2019-04-09T03:44:05.000Z,972.26
2019-04-09T03:45:06.537Z,972.18
2019-04-09T03:46:05.698Z,972.24
2019-04-09T03:47:05.745Z,972.18
2019-04-09T03:48:05.424Z,972.38
2019-04-09T03:49:04.821Z,972.30
2019-04-09T03:50:05.522Z,972.21
2019-04-09T03:51:05.259Z,972.41
2019-04-09T03:52:04.821Z,972.35
2019-04-09T03:53:05.602Z,972.35
2019-04-09T03:54:04.786Z,972.24
2019-04-09T03:55:05.103Z,972.38
2019-04-09T03:56:05.832Z,972.30
2019-04-09T03:57:05.503Z,972.24
2019-04-09T03:58:19.473Z,972.36
2019-04-09T03:59:04.957Z,972.39
2019-04-09T04:00:04.634Z,972.41
2019-04-09T04:01:06.199Z,972.47
2019-04-09T04:02:05.849Z,972.27
2019-04-09T04:03:05.041Z,972.33
2019-04-09T04:04:07.310Z,972.33
2019-04-09T04:05:05.669Z,972.30
2019-04-09T04:06:05.806Z,972.39
2019-04-09T04:07:04.493Z,972.41
2019-04-09T04:08:05.075Z,972.52
2019-04-09T04:09:04.952Z,972.47
2019-04-09T04:10:07.523Z,972.38
2019-04-09T04:11:05.390Z,972.47
2019-04-09T04:12:04.874Z,972.49
2019-04-09T04:13:06.241Z,972.47
2019-04-09T04:14:05.298Z,972.41
2019-04-09T04:15:06.136Z,972.35
2019-04-09T04:16:06.172Z,972.41
2019-04-09T04:17:06.288Z,972.38
2019-04-09T04:18:05.566Z,972.54
2019-04-09T04:19:06.277Z,972.46
2019-04-09T04:20:06.333Z,972.41
2019-04-09T04:21:04.847Z,972.35
2019-04-09T04:22:05.516Z,972.49
2019-04-09T04:23:04.964Z,972.57
2019-04-09T04:24:05.793Z,972.49
2019-04-09T04:25:06.202Z,972.57
2019-04-09T04:26:05.440Z,972.59
2019-04-09T04:27:05.589Z,972.59
2019-04-09T04:28:05.398Z,972.46
2019-04-09T04:29:04.801Z,972.46
2019-04-09T04:30:05.050Z,972.40
2019-04-09T04:31:05.756Z,972.56
2019-04-09T04:32:04.539Z,972.59
2019-04-09T04:33:05.089Z,972.49
2019-04-09T04:34:06.442Z,972.67
2019-04-09T04:35:06.304Z,972.56
2019-04-09T04:36:05.666Z,972.67
2019-04-09T04:37:06.393Z,972.65
2019-04-09T04:38:04.799Z,972.67
2019-04-09T04:39:04.933Z,972.62
2019-04-09T04:40:06.232Z,972.73
2019-04-09T04:41:05.953Z,972.53
2019-04-09T04:42:07.693Z,972.70
2019-04-09T04:43:10.803Z,972.81
2019-04-09T04:44:06.390Z,972.64
2019-04-09T04:45:06.258Z,972.64
2019-04-09T04:46:05.190Z,972.78
2019-04-09T04:47:06.875Z,972.78
2019-04-09T04:48:05.166Z,972.81
2019-04-09T04:49:04.990Z,972.93
2019-04-09T04:50:06.186Z,972.87
2019-04-09T04:51:04.878Z,972.84
2019-04-09T04:52:06.033Z,972.84
2019-04-09T04:53:04.932Z,972.79
2019-04-09T04:54:06.131Z,972.82
2019-04-09T04:55:04.762Z,972.76
2019-04-09T04:56:06.086Z,972.70
2019-04-09T04:57:04.726Z,972.79
2019-04-09T04:58:06.231Z,972.79
2019-04-09T04:59:05.457Z,972.82
2019-04-09T05:00:05.198Z,972.82
2019-04-09T05:01:04.509Z,972.79
2019-04-09T05:02:05.136Z,972.96
2019-04-09T05:03:04.955Z,972.82
2019-04-09T05:04:05.264Z,972.84
2019-04-09T05:05:05.234Z,972.82
2019-04-09T05:06:05.546Z,972.73
2019-04-09T05:07:05.811Z,972.93
2019-04-09T05:08:05.530Z,972.90
2019-04-09T05:09:04.593Z,972.98
2019-04-09T05:10:05.911Z,972.98
2019-04-09T05:11:04.773Z,973.01
2019-04-09T05:12:05.894Z,972.84
2019-04-09T05:13:05.821Z,972.87
2019-04-09T05:14:05.690Z,972.96
2019-04-09T05:15:05.399Z,972.90
2019-04-09T05:16:06.500Z,973.04
2019-04-09T05:17:05.271Z,972.96
2019-04-09T05:18:04.704Z,973.04
2019-04-09T05:19:05.999Z,972.99
2019-04-09T05:20:11.390Z,973.01
2019-04-09T05:21:04.798Z,972.99
2019-04-09T05:22:05.102Z,973.07
2019-04-09T05:23:05.755Z,973.02
2019-04-09T05:24:04.658Z,972.96
2019-04-09T05:25:05.475Z,973.04
2019-04-09T05:26:05.174Z,972.96
2019-04-09T05:27:04.919Z,973.16
2019-04-09T05:28:05.044Z,973.07
2019-04-09T05:29:09.648Z,973.02
2019-04-09T05:30:04.967Z,973.13
2019-04-09T05:31:04.837Z,973.10
2019-04-09T05:32:05.965Z,973.16
2019-04-09T05:33:05.364Z,973.16
2019-04-09T05:34:05.602Z,973.08
2019-04-09T05:35:06.310Z,973.05
2019-04-09T05:36:04.860Z,973.16
2019-04-09T05:37:04.949Z,973.00
2019-04-09T05:38:05.477Z,973.14
2019-04-09T05:39:05.671Z,973.16
2019-04-09T05:40:04.868Z,973.19
2019-04-09T05:41:05.955Z,973.22
2019-04-09T05:42:04.620Z,973.25
2019-04-09T05:43:05.780Z,973.17
2019-04-09T05:44:05.322Z,973.17
2019-04-09T05:45:05.901Z,973.28
2019-04-09T05:46:05.519Z,973.22
2019-04-09T05:47:05.519Z,973.14
2019-04-09T05:48:05.774Z,973.16
2019-04-09T05:49:05.800Z,973.36
2019-04-09T05:50:06.381Z,973.22
2019-04-09T05:51:04.657Z,973.17
2019-04-09T05:52:06.514Z,973.22
2019-04-09T05:53:06.276Z,973.28
2019-04-09T05:54:10.046Z,973.42
2019-04-09T05:55:06.380Z,973.28
2019-04-09T05:56:05.866Z,973.28
2019-04-09T05:57:05.083Z,973.25
2019-04-09T05:58:05.888Z,973.37
2019-04-09T05:59:09.999Z,973.23
2019-04-09T06:00:05.917Z,973.26
2019-04-09T06:01:04.917Z,973.26
2019-04-09T06:02:05.767Z,973.40
2019-04-09T06:03:04.545Z,973.20
2019-04-09T06:04:05.098Z,973.23
2019-04-09T06:05:05.147Z,973.29
2019-04-09T06:06:05.514Z,973.43
2019-04-09T06:07:05.302Z,973.32
2019-04-09T06:08:05.960Z,973.32
2019-04-09T06:09:04.701Z,973.26
2019-04-09T06:10:05.873Z,973.21
2019-04-09T06:11:05.076Z,973.35
2019-04-09T06:12:05.367Z,973.21
2019-04-09T06:13:05.415Z,973.23
2019-04-09T06:14:10.853Z,973.32
2019-04-09T06:15:06.349Z,973.21
2019-04-09T06:16:06.115Z,973.26
2019-04-09T06:17:05.598Z,973.18
2019-04-09T06:18:06.205Z,973.24
2019-04-09T06:19:05.450Z,973.18
2019-04-09T06:20:05.527Z,973.21
2019-04-09T06:21:07.888Z,973.21
2019-04-09T06:22:05.685Z,973.18
2019-04-09T06:23:05.512Z,973.09
2019-04-09T06:24:05.077Z,973.32
2019-04-09T06:25:05.319Z,973.23
2019-04-09T06:26:06.974Z,973.26
2019-04-09T06:27:05.209Z,973.32
2019-04-09T06:28:06.175Z,973.29
2019-04-09T06:29:20.542Z,973.29
2019-04-09T06:30:05.313Z,973.35
2019-04-09T06:31:06.182Z,973.26
2019-04-09T06:32:05.450Z,973.35
2019-04-09T06:33:06.293Z,973.35
2019-04-09T06:34:05.123Z,973.29
2019-04-09T06:35:05.885Z,973.34
2019-04-09T06:36:06.196Z,973.34
2019-04-09T06:37:05.068Z,973.34
2019-04-09T06:38:05.308Z,973.40
2019-04-09T06:39:04.673Z,973.34
2019-04-09T06:40:05.638Z,973.34
2019-04-09T06:41:05.461Z,973.45
2019-04-09T06:42:05.024Z,973.26
2019-04-09T06:43:11.086Z,973.40
2019-04-09T06:44:04.703Z,973.45
2019-04-09T06:45:04.494Z,973.34
2019-04-09T06:46:05.562Z,973.40
2019-04-09T06:47:05.177Z,973.34
2019-04-09T06:48:05.280Z,973.40
2019-04-09T06:49:06.037Z,973.31
2019-04-09T06:50:05.063Z,973.34
2019-04-09T06:51:05.769Z,973.40
2019-04-09T06:52:06.537Z,973.34
2019-04-09T06:53:05.261Z,973.40
2019-04-09T06:54:04.649Z,973.40
2019-04-09T06:55:12.317Z,973.40
2019-04-09T06:56:05.630Z,973.40
2019-04-09T06:57:07.355Z,973.46
2019-04-09T06:58:07.608Z,973.48
2019-04-09T06:59:05.365Z,973.29
2019-04-09T07:00:06.502Z,973.43
2019-04-09T07:01:04.946Z,973.17
2019-04-09T07:02:05.776Z,973.34
2019-04-09T07:03:11.585Z,973.14
2019-04-09T07:04:06.121Z,973.26
2019-04-09T07:05:05.277Z,973.29
2019-04-09T07:06:06.055Z,973.40
2019-04-09T07:07:05.270Z,973.40
2019-04-09T07:08:05.565Z,973.40
2019-04-09T07:09:04.592Z,973.23
2019-04-09T07:10:05.970Z,973.34
2019-04-09T07:11:18.400Z,973.31
2019-04-09T07:12:08.757Z,973.48
2019-04-09T07:13:05.567Z,973.45
2019-04-09T07:14:06.137Z,973.40
2019-04-09T07:15:05.519Z,973.43
2019-04-09T07:16:05.822Z,973.48
2019-04-09T07:17:05.651Z,973.34
2019-04-09T07:18:05.314Z,973.29
2019-04-09T07:19:05.411Z,973.43
2019-04-09T07:20:05.806Z,973.34
2019-04-09T07:21:05.906Z,973.40
2019-04-09T07:22:05.068Z,973.48
2019-04-09T07:23:05.740Z,973.40
2019-04-09T07:24:05.183Z,973.37
2019-04-09T07:25:06.031Z,973.39
2019-04-09T07:26:06.654Z,973.28
2019-04-09T07:27:05.419Z,973.50
2019-04-09T07:28:04.806Z,973.45
2019-04-09T07:29:04.842Z,973.39
2019-04-09T07:30:12.404Z,973.42
2019-04-09T07:31:07.526Z,973.33
2019-04-09T07:32:07.024Z,973.33
2019-04-09T07:33:12.084Z,973.44
2019-04-09T07:34:06.047Z,973.47
2019-04-09T07:35:05.068Z,973.47
2019-04-09T07:36:07.899Z,973.54
2019-04-09T07:37:10.591Z,973.47
2019-04-09T07:38:05.966Z,973.47
2019-04-09T07:39:04.739Z,973.52
2019-04-09T07:40:04.841Z,973.52
2019-04-09T07:41:09.885Z,973.57
2019-04-09T07:42:04.492Z,973.49
2019-04-09T07:43:10.324Z,973.47
2019-04-09T07:44:05.891Z,973.63
2019-04-09T07:45:16.998Z,973.44
2019-04-09T07:46:04.922Z,973.44
2019-04-09T07:47:04.717Z,973.63
2019-04-09T07:48:04.791Z,973.54
2019-04-09T07:49:05.855Z,973.47
2019-04-09T07:50:12.630Z,973.66
2019-04-09T07:51:05.609Z,973.50
2019-04-09T07:52:05.450Z,973.50
2019-04-09T07:53:05.050Z,973.63
2019-04-09T07:54:07.533Z,973.66
2019-04-09T07:55:05.206Z,973.66
2019-04-09T07:56:05.280Z,973.77
2019-04-09T07:57:07.369Z,973.58
2019-04-09T07:58:11.084Z,973.66
2019-04-09T07:59:05.745Z,973.72
2019-04-09T08:00:21.722Z,973.53
2019-04-09T08:01:06.255Z,973.66
2019-04-09T08:02:06.612Z,973.72
2019-04-09T08:03:05.396Z,973.60
2019-04-09T08:04:08.949Z,973.71
2019-04-09T08:05:05.072Z,973.68
2019-04-09T08:06:05.015Z,973.65
2019-04-09T08:07:08.075Z,973.68
2019-04-09T08:08:09.260Z,973.60
2019-04-09T08:09:04.950Z,973.82
2019-04-09T08:10:06.448Z,973.59
2019-04-09T08:11:08.547Z,973.57
2019-04-09T08:12:05.218Z,973.76
2019-04-09T08:13:05.935Z,973.73
2019-04-09T08:14:05.003Z,973.70
2019-04-09T08:15:06.409Z,973.65
2019-04-09T08:16:09.648Z,973.68
2019-04-09T08:17:04.901Z,973.70
2019-04-09T08:18:16.604Z,973.65
2019-04-09T08:19:05.342Z,973.62
2019-04-09T08:20:06.345Z,973.70
2019-04-09T08:21:06.130Z,973.64
2019-04-09T08:22:09.471Z,973.84
2019-04-09T08:23:05.285Z,973.62
2019-04-09T08:24:05.875Z,973.59
2019-04-09T08:25:05.049Z,973.73
2019-04-09T08:26:06.657Z,973.64
2019-04-09T08:27:11.111Z,973.61
2019-04-09T08:28:05.222Z,973.64
2019-04-09T08:29:05.383Z,973.61
2019-04-09T08:30:27.167Z,973.64
2019-04-09T08:31:05.383Z,973.61
2019-04-09T08:32:15.505Z,973.64
2019-04-09T08:33:05.010Z,973.78
2019-04-09T08:34:06.270Z,973.75
2019-04-09T08:35:06.671Z,973.75
2019-04-09T08:36:12.723Z,973.75
2019-04-09T08:37:05.425Z,973.67
2019-04-09T08:38:05.335Z,973.55
2019-04-09T08:39:06.267Z,973.64
2019-04-09T08:40:12.317Z,973.64
2019-04-09T08:41:04.913Z,973.69
2019-04-09T08:42:06.478Z,973.72
2019-04-09T08:43:09.482Z,973.69
2019-04-09T08:44:12.976Z,973.81
2019-04-09T08:45:13.801Z,973.84
2019-04-09T08:46:06.287Z,973.64
2019-04-09T08:47:06.439Z,973.64
2019-04-09T08:48:13.292Z,973.69
2019-04-09T08:49:05.076Z,973.61
2019-04-09T08:50:05.219Z,973.72
2019-04-09T08:51:07.245Z,973.72
2019-04-09T08:52:11.105Z,973.81
2019-04-09T08:53:04.947Z,973.84
2019-04-09T08:54:05.359Z,973.81
2019-04-09T08:55:05.612Z,973.78
2019-04-09T08:56:08.278Z,973.75
2019-04-09T08:57:06.151Z,973.81
2019-04-09T08:58:04.872Z,973.78
2019-04-09T08:59:05.448Z,973.95
2019-04-09T09:00:06.086Z,973.92
2019-04-09T09:01:52.660Z,973.80
2019-04-09T09:02:22.520Z,973.83
2019-04-09T09:03:04.834Z,973.80
2019-04-09T09:04:15.479Z,973.80
2019-04-09T09:05:17.330Z,973.80
2019-04-09T09:06:13.418Z,973.88
2019-04-09T09:07:05.564Z,973.83
2019-04-09T09:08:09.062Z,974.00
2019-04-09T09:09:10.686Z,973.80
2019-04-09T09:10:06.049Z,973.88
2019-04-09T09:11:04.834Z,973.82
2019-04-09T09:12:08.937Z,973.96
2019-04-09T09:13:10.246Z,973.71
2019-04-09T09:14:05.441Z,973.74
2019-04-09T09:15:05.715Z,973.79
2019-04-09T09:16:05.716Z,973.85
2019-04-09T09:17:09.652Z,973.85
2019-04-09T09:18:06.020Z,973.96
2019-04-09T09:19:11.088Z,973.76
2019-04-09T09:20:06.683Z,973.96
2019-04-09T09:21:19.535Z,973.87
2019-04-09T09:22:07.343Z,973.90
2019-04-09T09:23:09.111Z,973.96
2019-04-09T09:24:06.698Z,973.87
2019-04-09T09:25:06.447Z,973.90
2019-04-09T09:26:08.634Z,974.04
2019-04-09T09:27:12.508Z,973.87
2019-04-09T09:28:06.000Z,974.12
2019-04-09T09:30:06.019Z,973.75
2019-04-09T09:31:17.898Z,973.84
2019-04-09T09:32:06.432Z,974.03
2019-04-09T09:33:11.301Z,973.95
2019-04-09T09:34:05.036Z,973.81
2019-04-09T09:35:05.913Z,973.95
2019-04-09T09:36:09.133Z,973.86
2019-04-09T09:37:14.672Z,973.86
2019-04-09T09:38:05.346Z,973.91
2019-04-09T09:39:06.919Z,974.00
2019-04-09T09:40:05.426Z,973.94
2019-04-09T09:41:08.681Z,973.97
2019-04-09T09:42:04.667Z,974.00
2019-04-09T09:43:06.082Z,973.77
2019-04-09T09:44:05.142Z,973.77
2019-04-09T09:45:06.678Z,973.85
2019-04-09T09:46:06.159Z,973.77
2019-04-09T09:47:05.181Z,973.80
2019-04-09T09:48:05.450Z,973.88
2019-04-09T09:49:06.184Z,973.96
2019-04-09T09:50:11.862Z,973.85
2019-04-09T09:51:07.836Z,973.96
2019-04-09T09:52:05.631Z,973.79
2019-04-09T09:53:10.090Z,973.91
2019-04-09T09:54:07.826Z,973.88
2019-04-09T09:55:08.296Z,973.96
2019-04-09T09:56:07.888Z,973.91
2019-04-09T09:57:13.120Z,973.91
2019-04-09T09:58:05.329Z,974.02
2019-04-09T09:59:05.224Z,973.88
2019-04-09T10:00:09.561Z,973.85
2019-04-09T10:01:19.414Z,973.85
2019-04-09T10:02:08.550Z,973.85
2019-04-09T10:03:10.582Z,973.85
2019-04-09T10:04:05.268Z,973.82
2019-04-09T10:05:05.769Z,973.79
2019-04-09T10:06:17.514Z,973.96
2019-04-09T10:07:06.205Z,973.87
2019-04-09T10:08:14.323Z,973.79
2019-04-09T10:09:05.820Z,973.87
2019-04-09T10:10:06.558Z,973.90
2019-04-09T10:11:05.211Z,973.96
2019-04-09T10:12:11.435Z,973.76
2019-04-09T10:13:10.401Z,973.82
2019-04-09T10:14:06.049Z,973.93
2019-04-09T10:15:13.817Z,973.88
2019-04-09T10:16:05.731Z,973.91
2019-04-09T10:17:05.024Z,973.91
2019-04-09T10:18:07.513Z,973.85
2019-04-09T10:19:14.720Z,973.85
2019-04-09T10:20:05.876Z,973.76
2019-04-09T10:21:07.190Z,973.85
2019-04-09T10:22:05.228Z,973.73
2019-04-09T10:23:05.471Z,973.68
2019-04-09T10:24:21.115Z,973.79
2019-04-09T10:25:06.223Z,973.88
2019-04-09T10:26:13.614Z,973.68
2019-04-09T10:27:09.580Z,973.82
2019-04-09T10:28:04.979Z,973.87
2019-04-09T10:29:14.630Z,973.82
2019-04-09T10:30:09.542Z,973.85
2019-04-09T10:31:26.577Z,973.87
2019-04-09T10:32:10.908Z,973.90
2019-04-09T10:33:04.958Z,973.87
2019-04-09T10:34:06.307Z,973.82
2019-04-09T10:35:09.163Z,973.85
2019-04-09T10:36:08.239Z,973.99
2019-04-09T10:37:15.823Z,973.79
2019-04-09T10:38:08.045Z,973.76
2019-04-09T10:39:05.799Z,973.76
2019-04-09T10:40:11.071Z,973.90
2019-04-09T10:41:24.560Z,973.76
2019-04-09T10:42:09.274Z,973.87
2019-04-09T10:43:14.147Z,973.79
2019-04-09T10:44:05.355Z,973.70
2019-04-09T10:45:06.112Z,973.67
2019-04-09T10:46:05.197Z,973.84
2019-04-09T10:47:11.198Z,973.87
2019-04-09T10:48:07.343Z,973.95
2019-04-09T10:49:06.313Z,973.70
2019-04-09T10:50:06.157Z,973.89
2019-04-09T10:51:09.308Z,973.92
2019-04-09T10:52:06.254Z,973.83
2019-04-09T10:53:05.212Z,973.92
2019-04-09T10:54:08.215Z,973.86
2019-04-09T10:55:06.211Z,973.92
2019-04-09T10:56:06.103Z,973.91
2019-04-09T10:57:11.112Z,973.75
2019-04-09T10:58:05.325Z,973.80
2019-04-09T10:59:05.129Z,973.89
2019-04-09T11:00:08.075Z,973.89
2019-04-09T11:01:09.666Z,973.83
2019-04-09T11:02:05.384Z,973.80
2019-04-09T11:03:06.150Z,973.88
2019-04-09T11:04:11.945Z,973.77
2019-04-09T11:05:05.086Z,973.80
2019-04-09T11:06:04.805Z,973.91
2019-04-09T11:07:07.551Z,973.97
2019-04-09T11:08:08.137Z,974.08
2019-04-09T11:09:05.606Z,973.85
2019-04-09T11:10:18.551Z,974.02
2019-04-09T11:11:05.021Z,973.82
2019-04-09T11:12:05.391Z,974.11
2019-04-09T11:13:05.832Z,974.02
2019-04-09T11:14:09.691Z,973.94
2019-04-09T11:15:05.729Z,974.05
2019-04-09T11:16:06.390Z,973.97
2019-04-09T11:17:06.837Z,973.99
2019-04-09T11:18:13.295Z,974.14
2019-04-09T11:19:06.027Z,973.97
2019-04-09T11:20:05.092Z,973.97
2019-04-09T11:21:10.169Z,974.08
2019-04-09T11:22:06.351Z,973.97
2019-04-09T11:23:05.341Z,973.94
2019-04-09T11:24:05.207Z,973.94
2019-04-09T11:25:06.099Z,973.91
2019-04-09T11:26:12.618Z,974.08
2019-04-09T11:27:05.729Z,974.11
2019-04-09T11:28:08.242Z,973.88
2019-04-09T11:29:05.077Z,973.97
2019-04-09T11:30:05.933Z,973.97
2019-04-09T11:31:04.655Z,974.08
2019-04-09T11:32:11.056Z,974.02
2019-04-09T11:33:05.131Z,973.91
2019-04-09T11:34:05.152Z,974.06
2019-04-09T11:35:04.667Z,974.06
2019-04-09T11:36:05.431Z,973.92
2019-04-09T11:37:05.838Z,974.03
2019-04-09T11:38:05.923Z,974.09
2019-04-09T11:39:04.862Z,974.00
2019-04-09T11:40:06.149Z,974.00
2019-04-09T11:41:08.673Z,974.06
2019-04-09T11:42:05.824Z,974.03
2019-04-09T11:43:09.566Z,974.25
2019-04-09T11:44:05.122Z,974.17
2019-04-09T11:45:05.460Z,974.08
2019-04-09T11:46:05.973Z,974.11
2019-04-09T11:47:07.616Z,973.97
2019-04-09T11:48:05.640Z,974.03
2019-04-09T11:49:04.849Z,974.06
2019-04-09T11:50:04.919Z,974.06
2019-04-09T11:51:05.895Z,974.09
2019-04-09T11:52:05.775Z,974.08
2019-04-09T11:53:06.276Z,974.14
2019-04-09T11:54:04.990Z,974.03
2019-04-09T11:55:05.513Z,974.03
2019-04-09T11:56:04.718Z,974.06
2019-04-09T11:57:04.981Z,974.11
2019-04-09T11:58:05.839Z,974.11
2019-04-09T11:59:04.852Z,973.91
2019-04-09T12:00:06.064Z,974.08
2019-04-09T12:01:04.857Z,973.91
2019-04-09T12:02:11.636Z,974.03
2019-04-09T12:03:11.028Z,974.00
2019-04-09T12:04:05.532Z,974.00
2019-04-09T12:05:05.056Z,973.91
2019-04-09T12:06:05.370Z,973.97
2019-04-09T12:07:06.454Z,974.00
2019-04-09T12:08:06.417Z,974.14
2019-04-09T12:09:07.309Z,973.97
2019-04-09T12:10:05.098Z,973.91
2019-04-09T12:11:05.284Z,973.97
2019-04-09T12:12:05.640Z,973.94
2019-04-09T12:13:06.340Z,973.97
2019-04-09T12:14:05.058Z,973.94
2019-04-09T12:15:04.940Z,974.00
2019-04-09T12:16:05.209Z,974.08
2019-04-09T12:17:05.661Z,974.11
2019-04-09T12:18:04.985Z,973.91
2019-04-09T12:19:06.191Z,974.14
2019-04-09T12:20:15.378Z,973.94
2019-04-09T12:21:05.508Z,974.02
2019-04-09T12:22:06.138Z,973.91
2019-04-09T12:23:06.167Z,973.97
2019-04-09T12:24:05.322Z,973.85
2019-04-09T12:25:04.521Z,973.91
2019-04-09T12:26:04.918Z,973.99
2019-04-09T12:27:07.102Z,973.97
2019-04-09T12:28:04.951Z,973.91
2019-04-09T12:29:15.730Z,973.99